createdAt,value
2022-08-25T00:00:24.995Z,23.00
2022-08-25T00:02:03.174Z,23.00
2022-08-25T00:03:36.558Z,23.00
2022-08-25T00:05:11.372Z,23.00
2022-08-25T00:06:44.965Z,23.00
2022-08-25T00:08:16.690Z,23.00
2022-08-25T00:09:48.381Z,23.00
2022-08-25T00:11:22.912Z,23.00
2022-08-25T00:12:55.105Z,23.00
2022-08-25T00:14:31.210Z,23.00
2022-08-25T00:16:03.266Z,23.00
2022-08-25T00:17:35.330Z,22.90
2022-08-25T00:19:12.249Z,22.90
2022-08-25T00:20:47.163Z,22.90
2022-08-25T00:22:20.813Z,22.90
2022-08-25T00:23:52.957Z,22.90
2022-08-25T00:25:24.896Z,22.90
2022-08-25T00:26:58.414Z,22.90
2022-08-25T00:28:31.178Z,22.90
2022-08-25T00:30:04.233Z,22.90
2022-08-25T00:31:38.320Z,22.90
2022-08-25T00:33:11.298Z,22.90
2022-08-25T00:34:42.987Z,22.90
2022-08-25T00:36:16.221Z,22.90
2022-08-25T00:37:47.978Z,23.00
2022-08-25T00:39:21.989Z,23.00
2022-08-25T00:41:06.239Z,23.00
2022-08-25T00:42:38.466Z,23.00
2022-08-25T00:44:13.110Z,23.10
2022-08-25T00:45:44.854Z,23.10
2022-08-25T00:47:17.514Z,23.10
2022-08-25T00:48:53.510Z,23.10
2022-08-25T00:50:26.615Z,23.20
2022-08-25T00:52:19.002Z,23.20
2022-08-25T00:53:53.862Z,23.20
2022-08-25T00:55:34.663Z,23.20
2022-08-25T00:57:09.198Z,23.20
2022-08-25T00:58:42.434Z,23.20
2022-08-25T01:00:19.334Z,23.20
2022-08-25T01:01:55.041Z,23.20
2022-08-25T01:03:32.977Z,23.20
2022-08-25T01:05:05.883Z,23.20
2022-08-25T01:06:40.726Z,23.20
2022-08-25T01:08:13.106Z,23.20
2022-08-25T01:09:49.759Z,23.20
2022-08-25T01:11:21.988Z,23.20
2022-08-25T01:12:59.862Z,23.10
2022-08-25T01:14:33.816Z,23.10
2022-08-25T01:16:05.864Z,23.10
2022-08-25T01:17:48.323Z,23.00
2022-08-25T01:19:21.107Z,23.00
2022-08-25T01:21:01.906Z,23.00
2022-08-25T01:22:33.803Z,23.00
2022-08-25T01:24:06.223Z,22.90
2022-08-25T01:26:16.651Z,22.90
2022-08-25T01:27:48.539Z,22.90
2022-08-25T01:29:25.443Z,22.90
2022-08-25T01:31:00.532Z,22.90
2022-08-25T01:32:34.554Z,22.80
2022-08-25T01:34:08.007Z,22.80
2022-08-25T01:35:40.907Z,22.80
2022-08-25T01:37:15.612Z,22.80
2022-08-25T01:38:47.418Z,22.70
2022-08-25T01:40:19.290Z,22.70
2022-08-25T01:42:02.979Z,22.70
2022-08-25T01:43:38.899Z,22.60
2022-08-25T01:45:10.743Z,22.60
2022-08-25T01:46:42.822Z,22.60
2022-08-25T01:48:15.575Z,22.60
2022-08-25T01:49:47.295Z,22.50
2022-08-25T01:51:23.542Z,22.50
2022-08-25T01:53:19.185Z,22.50
2022-08-25T01:54:51.255Z,22.50
2022-08-25T01:56:22.951Z,22.50
2022-08-25T01:57:55.556Z,22.40
2022-08-25T01:59:27.524Z,22.40
2022-08-25T02:01:02.302Z,22.40
2022-08-25T02:02:34.164Z,22.40
2022-08-25T02:04:06.254Z,22.40
2022-08-25T02:05:39.884Z,22.40
2022-08-25T02:07:11.992Z,22.30
2022-08-25T02:08:44.292Z,22.30
2022-08-25T02:10:16.001Z,22.30
2022-08-25T02:11:47.835Z,22.30
2022-08-25T02:13:20.774Z,22.30
2022-08-25T02:15:01.623Z,22.20
2022-08-25T02:16:38.182Z,22.20
2022-08-25T02:18:10.800Z,22.30
2022-08-25T02:19:42.599Z,22.20
2022-08-25T02:21:14.952Z,22.20
2022-08-25T02:22:56.563Z,22.20
2022-08-25T02:24:29.127Z,22.20
2022-08-25T02:26:00.803Z,22.10
2022-08-25T02:27:32.486Z,22.10
2022-08-25T02:29:07.680Z,22.10
2022-08-25T02:30:42.472Z,22.10
2022-08-25T02:32:14.239Z,22.10
2022-08-25T02:33:46.178Z,22.10
2022-08-25T02:35:18.212Z,22.10
2022-08-25T02:36:50.228Z,22.00
2022-08-25T02:38:21.959Z,22.00
2022-08-25T02:39:53.695Z,22.00
2022-08-25T02:41:27.785Z,22.00
2022-08-25T02:43:03.745Z,22.00
2022-08-25T02:44:35.556Z,22.00
2022-08-25T02:46:07.891Z,22.00
2022-08-25T02:47:41.260Z,22.00
2022-08-25T02:49:12.968Z,21.90
2022-08-25T02:50:52.493Z,21.90
2022-08-25T02:52:25.150Z,21.90
2022-08-25T02:53:59.080Z,21.80
2022-08-25T02:55:30.872Z,21.80
2022-08-25T02:57:06.504Z,21.80
2022-08-25T02:58:41.735Z,21.80
2022-08-25T03:00:16.008Z,21.80
2022-08-25T03:01:49.240Z,21.70
2022-08-25T03:03:21.456Z,21.70
2022-08-25T03:04:55.161Z,21.70
2022-08-25T03:06:27.928Z,21.70
2022-08-25T03:08:00.305Z,21.70
2022-08-25T03:09:32.289Z,21.70
2022-08-25T03:11:06.540Z,21.70
2022-08-25T03:12:38.316Z,21.60
2022-08-25T03:14:11.018Z,21.60
2022-08-25T03:15:44.195Z,21.60
2022-08-25T03:17:15.984Z,21.60
2022-08-25T03:18:48.444Z,21.60
2022-08-25T03:20:22.331Z,21.60
2022-08-25T03:21:56.205Z,21.60
2022-08-25T03:23:27.979Z,21.60
2022-08-25T03:25:22.151Z,21.50
2022-08-25T03:26:56.011Z,21.50
2022-08-25T03:28:29.933Z,21.50
2022-08-25T03:30:03.273Z,21.50
2022-08-25T03:31:35.832Z,21.40
2022-08-25T03:33:07.646Z,21.50
2022-08-25T03:34:39.432Z,21.50
2022-08-25T03:36:12.219Z,21.40
2022-08-25T03:37:44.168Z,21.40
2022-08-25T03:39:16.832Z,21.40
2022-08-25T03:40:49.072Z,21.40
2022-08-25T03:42:20.804Z,21.40
2022-08-25T03:43:53.321Z,21.40
2022-08-25T03:45:25.554Z,21.30
2022-08-25T03:46:57.399Z,21.30
2022-08-25T03:48:29.440Z,21.30
2022-08-25T03:50:01.336Z,21.30
2022-08-25T03:51:40.681Z,21.30
2022-08-25T03:53:12.409Z,21.30
2022-08-25T03:54:45.125Z,21.30
2022-08-25T03:56:17.208Z,21.20
2022-08-25T03:57:49.070Z,21.30
2022-08-25T03:59:22.198Z,21.20
2022-08-25T04:00:54.020Z,21.20
2022-08-25T04:02:25.849Z,21.20
2022-08-25T04:03:58.424Z,21.20
2022-08-25T04:05:30.160Z,21.20
2022-08-25T04:07:04.859Z,21.10
2022-08-25T04:08:39.634Z,21.10
2022-08-25T04:10:12.349Z,21.10
2022-08-25T04:11:44.116Z,21.10
2022-08-25T04:13:15.970Z,21.10
2022-08-25T04:14:47.911Z,21.10
2022-08-25T04:16:27.551Z,21.10
2022-08-25T04:17:59.639Z,21.10
2022-08-25T04:19:31.420Z,21.00
2022-08-25T04:21:05.522Z,21.00
2022-08-25T04:22:38.385Z,21.00
2022-08-25T04:24:12.752Z,21.00
2022-08-25T04:25:46.251Z,21.00
2022-08-25T04:27:18.136Z,21.00
2022-08-25T04:28:50.227Z,21.00
2022-08-25T04:30:21.998Z,21.00
2022-08-25T04:31:57.410Z,21.00
2022-08-25T04:33:29.273Z,21.00
2022-08-25T04:35:01.008Z,20.90
2022-08-25T04:36:33.094Z,20.90
2022-08-25T04:38:05.094Z,20.90
2022-08-25T04:39:36.945Z,20.90
2022-08-25T04:41:10.375Z,20.90
2022-08-25T04:42:42.107Z,20.90
2022-08-25T04:44:13.785Z,20.90
2022-08-25T04:45:45.520Z,20.90
2022-08-25T04:47:17.280Z,20.90
2022-08-25T04:48:51.649Z,20.80
2022-08-25T04:50:23.365Z,20.80
2022-08-25T04:51:56.207Z,20.80
2022-08-25T04:53:27.946Z,20.80
2022-08-25T04:55:00.128Z,20.80
2022-08-25T04:56:33.628Z,20.80
2022-08-25T04:58:05.570Z,20.80
2022-08-25T04:59:46.345Z,20.80
2022-08-25T05:01:22.452Z,20.80
2022-08-25T05:02:55.454Z,20.80
2022-08-25T05:04:28.025Z,20.80
2022-08-25T05:06:00.624Z,20.80
2022-08-25T05:07:32.390Z,20.80
2022-08-25T05:09:05.119Z,20.80
2022-08-25T05:10:41.222Z,20.80
2022-08-25T05:12:14.142Z,20.70
2022-08-25T05:13:51.263Z,20.70
2022-08-25T05:15:42.089Z,20.70
2022-08-25T05:17:14.696Z,20.70
2022-08-25T05:18:46.437Z,20.70
2022-08-25T05:20:18.295Z,20.70
2022-08-25T05:21:50.175Z,20.70
2022-08-25T05:23:24.127Z,20.70
2022-08-25T05:24:55.795Z,20.70
2022-08-25T05:26:30.718Z,20.70
2022-08-25T05:28:03.398Z,20.70
2022-08-25T05:29:37.998Z,20.70
2022-08-25T05:31:12.456Z,20.70
2022-08-25T05:32:44.854Z,20.80
2022-08-25T05:34:18.272Z,20.80
2022-08-25T05:35:50.082Z,20.80
2022-08-25T05:37:23.186Z,20.80
2022-08-25T05:38:55.256Z,20.80
2022-08-25T05:40:27.095Z,20.80
2022-08-25T05:41:58.974Z,20.80
2022-08-25T05:43:31.754Z,20.80
2022-08-25T05:45:05.268Z,20.80
2022-08-25T05:46:37.070Z,20.90
2022-08-25T05:48:08.778Z,20.90
2022-08-25T05:49:40.615Z,20.90
2022-08-25T05:51:14.848Z,21.00
2022-08-25T05:52:46.883Z,21.00
2022-08-25T05:54:18.747Z,21.00
2022-08-25T05:55:51.991Z,21.00
2022-08-25T05:57:23.755Z,21.10
2022-08-25T05:58:55.424Z,21.10
2022-08-25T06:00:27.199Z,21.10
2022-08-25T06:02:17.847Z,21.10
2022-08-25T06:03:54.219Z,21.20
2022-08-25T06:05:26.084Z,21.20
2022-08-25T06:06:57.812Z,21.20
2022-08-25T06:08:32.208Z,21.20
2022-08-25T06:10:06.694Z,21.20
2022-08-25T06:11:40.145Z,21.20
2022-08-25T06:13:14.637Z,21.20
2022-08-25T06:14:48.289Z,21.20
2022-08-25T06:16:20.009Z,21.20
2022-08-25T06:17:52.558Z,21.20
2022-08-25T06:19:24.285Z,21.20
2022-08-25T06:20:55.963Z,21.30
2022-08-25T06:22:27.689Z,21.30
2022-08-25T06:23:59.384Z,21.30
2022-08-25T06:25:33.474Z,21.30
2022-08-25T06:27:05.262Z,21.40
2022-08-25T06:28:37.183Z,21.50
2022-08-25T06:30:11.688Z,21.50
2022-08-25T06:31:45.606Z,21.50
2022-08-25T06:33:17.335Z,21.50
2022-08-25T06:34:49.079Z,21.60
2022-08-25T06:36:21.058Z,21.70
2022-08-25T06:37:53.235Z,21.60
2022-08-25T06:39:25.031Z,21.70
2022-08-25T06:40:57.623Z,21.70
2022-08-25T06:42:29.399Z,21.80
2022-08-25T06:44:05.423Z,21.80
2022-08-25T06:45:37.447Z,21.90
2022-08-25T06:47:09.714Z,21.90
2022-08-25T06:48:41.794Z,22.00
2022-08-25T06:50:13.574Z,22.00
2022-08-25T06:51:45.785Z,22.00
2022-08-25T06:53:19.557Z,22.10
2022-08-25T06:54:52.185Z,22.10
2022-08-25T06:56:24.065Z,22.10
2022-08-25T06:57:56.050Z,22.20
2022-08-25T06:59:32.298Z,22.20
2022-08-25T07:01:11.339Z,22.30
2022-08-25T07:02:47.459Z,22.30
2022-08-25T07:04:19.487Z,22.40
2022-08-25T07:05:56.439Z,22.40
2022-08-25T07:07:28.160Z,22.50
2022-08-25T07:09:16.110Z,22.50
2022-08-25T07:10:48.289Z,22.60
2022-08-25T07:12:21.782Z,22.60
2022-08-25T07:13:53.694Z,22.70
2022-08-25T07:15:25.607Z,22.80
2022-08-25T07:16:57.827Z,22.80
2022-08-25T07:18:31.860Z,22.90
2022-08-25T07:20:04.046Z,22.90
2022-08-25T07:21:39.539Z,22.90
2022-08-25T07:23:11.275Z,22.90
2022-08-25T07:24:43.627Z,23.00
2022-08-25T07:26:36.812Z,23.00
2022-08-25T07:28:09.407Z,23.10
2022-08-25T07:29:42.758Z,23.10
2022-08-25T07:31:14.674Z,23.20
2022-08-25T07:32:46.476Z,23.20
2022-08-25T07:35:05.175Z,23.20
2022-08-25T07:36:36.945Z,23.30
2022-08-25T07:38:10.204Z,23.30
2022-08-25T07:39:45.026Z,23.40
2022-08-25T07:41:17.583Z,23.40
2022-08-25T07:42:51.431Z,23.50
2022-08-25T07:44:24.660Z,23.50
2022-08-25T07:46:00.191Z,23.60
2022-08-25T07:47:31.932Z,23.70
2022-08-25T07:49:05.300Z,23.70
2022-08-25T07:50:50.230Z,23.70
2022-08-25T07:52:23.633Z,23.70
2022-08-25T07:53:55.467Z,23.80
2022-08-25T07:55:31.031Z,23.90
2022-08-25T07:57:05.041Z,23.90
2022-08-25T07:58:37.200Z,23.80
2022-08-25T08:00:11.175Z,23.90
2022-08-25T08:01:46.839Z,23.90
2022-08-25T08:03:35.527Z,23.90
2022-08-25T08:05:15.184Z,24.00
2022-08-25T08:06:47.582Z,23.90
2022-08-25T08:08:19.295Z,24.00
2022-08-25T08:10:04.766Z,24.00
2022-08-25T08:11:53.956Z,24.10
2022-08-25T08:13:26.745Z,24.20
2022-08-25T08:15:00.966Z,24.20
2022-08-25T08:16:33.512Z,24.20
2022-08-25T08:18:07.314Z,24.30
2022-08-25T08:19:43.111Z,24.40
2022-08-25T08:21:21.943Z,24.30
2022-08-25T08:22:54.993Z,24.40
2022-08-25T08:24:44.352Z,24.40
2022-08-25T08:26:22.473Z,24.40
2022-08-25T08:28:08.813Z,24.40
2022-08-25T08:29:43.726Z,24.50
2022-08-25T08:31:19.374Z,24.60
2022-08-25T08:33:09.229Z,24.60
2022-08-25T08:34:42.121Z,24.60
2022-08-25T08:36:16.133Z,24.70
2022-08-25T08:37:48.209Z,24.70
2022-08-25T08:39:24.405Z,24.80
2022-08-25T08:42:09.633Z,24.80
2022-08-25T08:43:39.514Z,24.80
2022-08-25T08:45:40.269Z,24.90
2022-08-25T08:47:42.472Z,25.00
2022-08-25T08:49:35.092Z,24.90
2022-08-25T08:51:33.066Z,24.90
2022-08-25T08:53:09.290Z,25.00
2022-08-25T08:54:43.789Z,25.00
2022-08-25T08:56:22.129Z,25.10
2022-08-25T08:57:57.667Z,25.10
2022-08-25T08:59:41.691Z,25.10
2022-08-25T09:01:29.246Z,25.20
2022-08-25T09:03:16.709Z,25.30
2022-08-25T09:04:55.464Z,25.50
2022-08-25T09:06:41.084Z,25.50
2022-08-25T09:08:15.099Z,25.40
2022-08-25T09:09:52.484Z,25.50
2022-08-25T09:11:30.905Z,25.50
2022-08-25T09:13:16.540Z,25.50
2022-08-25T09:15:12.885Z,25.50
2022-08-25T09:16:55.305Z,25.60
2022-08-25T09:18:41.247Z,25.60
2022-08-25T09:20:52.165Z,25.60
2022-08-25T09:22:46.832Z,25.70
2022-08-25T09:24:40.214Z,25.80
2022-08-25T09:26:42.557Z,25.80
2022-08-25T09:28:35.852Z,25.80
2022-08-25T09:30:14.350Z,25.80
2022-08-25T09:31:48.946Z,25.80
2022-08-25T09:33:23.857Z,25.80
2022-08-25T09:34:56.172Z,25.80
2022-08-25T09:36:34.323Z,25.80
2022-08-25T09:38:11.664Z,25.90
2022-08-25T09:39:43.399Z,26.00
2022-08-25T09:41:19.507Z,26.10
2022-08-25T09:42:57.926Z,26.10
2022-08-25T09:44:33.425Z,26.10
2022-08-25T09:46:27.010Z,26.10
2022-08-25T09:47:59.057Z,26.10
2022-08-25T09:49:44.444Z,26.10
2022-08-25T09:51:28.476Z,26.20
2022-08-25T09:53:17.241Z,26.30
2022-08-25T09:54:51.030Z,26.30
2022-08-25T09:56:25.450Z,26.30
2022-08-25T09:58:00.637Z,26.30
2022-08-25T09:59:36.116Z,26.40
2022-08-25T10:01:16.181Z,26.30
2022-08-25T10:03:09.413Z,26.30
2022-08-25T10:04:41.311Z,26.40
2022-08-25T10:06:15.758Z,26.40
2022-08-25T10:08:00.258Z,26.40
2022-08-25T10:09:37.711Z,26.50
2022-08-25T10:11:28.950Z,26.50
2022-08-25T10:13:03.506Z,26.60
2022-08-25T10:14:44.308Z,26.70
2022-08-25T10:16:35.560Z,26.60
2022-08-25T10:18:26.633Z,26.70
2022-08-25T10:20:10.339Z,26.70
2022-08-25T10:21:43.604Z,26.70
2022-08-25T10:23:15.760Z,26.80
2022-08-25T10:24:49.018Z,26.90
2022-08-25T10:26:36.967Z,27.00
2022-08-25T10:28:26.685Z,27.00
2022-08-25T10:30:19.842Z,27.00
2022-08-25T10:32:14.737Z,27.00
2022-08-25T10:34:07.297Z,27.00
2022-08-25T10:35:57.709Z,27.00
2022-08-25T10:37:51.783Z,26.90
2022-08-25T10:39:40.614Z,26.90
2022-08-25T10:41:18.581Z,26.90
2022-08-25T10:43:25.682Z,26.90
2022-08-25T10:45:41.837Z,27.00
2022-08-25T10:47:32.447Z,26.90
2022-08-25T10:49:20.371Z,26.90
2022-08-25T10:51:03.354Z,27.00
2022-08-25T10:52:42.682Z,27.10
2022-08-25T10:54:28.213Z,27.20
2022-08-25T10:56:17.707Z,27.30
2022-08-25T10:58:04.648Z,27.30
2022-08-25T10:59:43.850Z,27.20
2022-08-25T11:01:42.991Z,27.20
2022-08-25T11:03:37.564Z,27.20
2022-08-25T11:05:18.435Z,27.30
2022-08-25T11:07:05.722Z,27.40
2022-08-25T11:08:53.509Z,27.40
2022-08-25T11:10:35.649Z,27.30
2022-08-25T11:12:41.635Z,27.30
2022-08-25T11:14:34.633Z,27.40
2022-08-25T11:16:18.683Z,27.40
2022-08-25T11:17:57.332Z,27.40
2022-08-25T11:19:45.445Z,27.50
2022-08-25T11:21:35.907Z,27.40
2022-08-25T11:23:37.053Z,27.50
2022-08-25T11:25:39.679Z,27.60
2022-08-25T11:27:18.767Z,27.60
2022-08-25T11:29:05.230Z,27.60
2022-08-25T11:30:44.380Z,27.50
2022-08-25T11:32:20.800Z,27.50
2022-08-25T11:33:54.027Z,27.50
2022-08-25T11:35:34.282Z,27.40
2022-08-25T11:37:15.196Z,27.40
2022-08-25T11:39:12.372Z,27.50
2022-08-25T11:40:52.418Z,27.60
2022-08-25T11:42:36.064Z,27.60
2022-08-25T11:44:17.501Z,27.70
2022-08-25T11:46:08.649Z,27.60
2022-08-25T11:48:08.364Z,27.60
2022-08-25T11:50:06.454Z,27.60
2022-08-25T11:51:47.736Z,27.60
2022-08-25T11:53:28.936Z,27.50
2022-08-25T11:55:11.203Z,27.60
2022-08-25T11:56:50.663Z,27.60
2022-08-25T11:58:28.375Z,27.60
2022-08-25T12:00:35.469Z,27.60
2022-08-25T12:02:07.287Z,27.60
2022-08-25T12:03:43.226Z,27.70
2022-08-25T12:05:24.074Z,27.70
2022-08-25T12:07:10.371Z,27.70
2022-08-25T12:08:54.087Z,27.60
2022-08-25T12:10:52.208Z,27.60
2022-08-25T12:12:56.098Z,27.70
2022-08-25T12:14:28.538Z,27.70
2022-08-25T12:16:00.982Z,27.70
2022-08-25T12:17:41.725Z,27.80
2022-08-25T12:19:28.591Z,27.80
2022-08-25T12:21:02.141Z,27.80
2022-08-25T12:22:34.978Z,27.90
2022-08-25T12:24:11.563Z,27.90
2022-08-25T12:25:47.481Z,27.90
2022-08-25T12:27:40.421Z,27.90
2022-08-25T12:29:21.470Z,27.90
2022-08-25T12:31:01.138Z,28.00
2022-08-25T12:32:39.638Z,28.10
2022-08-25T12:34:26.969Z,28.00
2022-08-25T12:36:01.719Z,28.00
2022-08-25T12:37:33.450Z,28.10
2022-08-25T12:39:24.372Z,28.10
2022-08-25T12:41:24.274Z,28.10
2022-08-25T12:43:28.114Z,28.10
2022-08-25T12:45:13.909Z,28.10
2022-08-25T12:46:45.728Z,28.00
2022-08-25T12:48:29.017Z,28.00
2022-08-25T12:50:33.935Z,28.10
2022-08-25T12:52:26.047Z,28.10
2022-08-25T12:54:30.196Z,28.10
2022-08-25T12:56:08.300Z,28.20
2022-08-25T12:57:50.061Z,28.20
2022-08-25T12:59:47.034Z,28.30
2022-08-25T13:01:35.724Z,28.30
2022-08-25T13:03:35.788Z,28.20
2022-08-25T13:05:33.591Z,28.10
2022-08-25T13:07:23.638Z,28.30
2022-08-25T13:09:41.409Z,28.40
2022-08-25T13:11:46.303Z,28.40
2022-08-25T13:13:37.677Z,28.40
2022-08-25T13:15:15.553Z,28.40
2022-08-25T13:16:58.372Z,28.30
2022-08-25T13:18:33.388Z,28.30
2022-08-25T13:20:25.689Z,28.30
2022-08-25T13:21:59.232Z,28.40
2022-08-25T13:23:34.153Z,28.50
2022-08-25T13:25:06.164Z,28.50
2022-08-25T13:26:47.255Z,28.50
2022-08-25T13:28:36.514Z,28.50
2022-08-25T13:30:24.832Z,28.60
2022-08-25T13:32:09.447Z,28.60
2022-08-25T13:34:02.212Z,28.60
2022-08-25T13:35:34.000Z,28.70
2022-08-25T13:37:30.444Z,28.70
2022-08-25T13:39:20.047Z,28.70
2022-08-25T13:41:10.945Z,28.60
2022-08-25T13:42:50.853Z,28.60
2022-08-25T13:44:28.532Z,28.60
2022-08-25T13:46:01.180Z,28.70
2022-08-25T13:47:45.118Z,28.70
2022-08-25T13:49:27.280Z,28.80
2022-08-25T13:51:22.901Z,28.80
2022-08-25T13:53:01.195Z,28.80
2022-08-25T13:54:42.144Z,28.80
2022-08-25T13:56:39.924Z,28.80
2022-08-25T13:58:24.822Z,28.80
2022-08-25T14:00:09.470Z,28.80
2022-08-25T14:01:48.203Z,28.70
2022-08-25T14:03:33.927Z,28.70
2022-08-25T14:05:06.317Z,28.70
2022-08-25T14:06:38.693Z,28.70
2022-08-25T14:08:33.270Z,28.70
2022-08-25T14:10:39.533Z,28.80
2022-08-25T14:12:34.223Z,28.80
2022-08-25T14:14:08.924Z,28.80
2022-08-25T14:15:44.279Z,28.90
2022-08-25T14:17:38.567Z,28.90
2022-08-25T14:19:19.819Z,28.90
2022-08-25T14:20:54.245Z,28.90
2022-08-25T14:22:26.780Z,29.00
2022-08-25T14:23:59.717Z,29.00
2022-08-25T14:25:32.508Z,28.90
2022-08-25T14:27:04.522Z,28.90
2022-08-25T14:28:36.781Z,28.90
2022-08-25T14:30:09.249Z,28.80
2022-08-25T14:31:44.785Z,28.90
2022-08-25T14:33:19.727Z,28.90
2022-08-25T14:34:52.397Z,28.90
2022-08-25T14:36:24.949Z,28.90
2022-08-25T14:37:56.919Z,28.90
2022-08-25T14:39:29.219Z,28.90
2022-08-25T14:41:01.503Z,29.00
2022-08-25T14:42:35.881Z,29.00
2022-08-25T14:44:09.133Z,29.00
2022-08-25T14:45:44.961Z,29.00
2022-08-25T14:47:19.225Z,28.90
2022-08-25T14:48:55.417Z,28.90
2022-08-25T14:50:27.157Z,28.90
2022-08-25T14:52:05.160Z,28.90
2022-08-25T14:53:37.246Z,28.90
2022-08-25T14:55:10.148Z,28.90
2022-08-25T14:56:42.966Z,28.90
2022-08-25T14:58:15.154Z,28.90
2022-08-25T14:59:46.892Z,28.90
2022-08-25T15:01:28.874Z,28.90
2022-08-25T15:03:01.438Z,28.90
2022-08-25T15:06:13.060Z,28.90
2022-08-25T15:08:04.323Z,28.90
2022-08-25T15:09:36.148Z,29.00
2022-08-25T15:11:10.815Z,28.90
2022-08-25T15:12:47.799Z,28.90
2022-08-25T15:14:29.120Z,28.90
2022-08-25T15:16:05.868Z,28.90
2022-08-25T15:17:41.285Z,28.90
2022-08-25T15:19:19.445Z,28.90
2022-08-25T15:20:51.630Z,28.90
2022-08-25T15:22:23.510Z,28.90
2022-08-25T15:23:58.225Z,29.00
2022-08-25T15:25:31.861Z,29.00
2022-08-25T15:27:05.539Z,29.00
2022-08-25T15:28:43.048Z,29.00
2022-08-25T15:30:16.904Z,29.00
2022-08-25T15:31:50.842Z,29.00
2022-08-25T15:33:22.752Z,29.00
2022-08-25T15:34:54.453Z,28.90
2022-08-25T15:36:26.854Z,29.00
2022-08-25T15:37:58.677Z,29.00
2022-08-25T15:39:30.401Z,29.00
2022-08-25T15:41:02.144Z,28.90
2022-08-25T15:42:37.731Z,28.90
2022-08-25T15:44:14.645Z,28.90
2022-08-25T15:45:48.359Z,28.90
2022-08-25T15:47:24.014Z,28.90
2022-08-25T15:48:57.308Z,28.90
2022-08-25T15:50:29.138Z,28.90
2022-08-25T15:52:01.398Z,28.90
2022-08-25T15:53:34.814Z,28.90
2022-08-25T15:55:07.800Z,29.00
2022-08-25T15:56:39.917Z,29.00
2022-08-25T15:58:11.617Z,29.00
2022-08-25T15:59:43.653Z,29.00
2022-08-25T16:01:23.620Z,29.00
2022-08-25T16:02:56.529Z,29.00
2022-08-25T16:04:29.081Z,29.00
2022-08-25T16:06:04.448Z,29.00
2022-08-25T16:07:36.292Z,29.00
2022-08-25T16:09:08.257Z,29.00
2022-08-25T16:10:42.503Z,29.00
2022-08-25T16:12:15.392Z,28.90
2022-08-25T16:13:48.345Z,28.90
2022-08-25T16:15:23.893Z,28.90
2022-08-25T16:17:00.336Z,28.90
2022-08-25T16:18:32.095Z,28.90
2022-08-25T16:20:05.374Z,28.90
2022-08-25T16:21:42.233Z,29.00
2022-08-25T16:23:20.045Z,28.90
2022-08-25T16:24:52.629Z,28.90
2022-08-25T16:26:25.766Z,28.90
2022-08-25T16:27:58.093Z,28.90
2022-08-25T16:29:35.841Z,29.00
2022-08-25T16:31:13.043Z,29.00
2022-08-25T16:32:46.572Z,28.90
2022-08-25T16:34:18.549Z,28.90
2022-08-25T16:35:51.433Z,28.90
2022-08-25T16:37:23.169Z,28.90
2022-08-25T16:38:57.511Z,28.90
2022-08-25T16:40:31.249Z,28.90
2022-08-25T16:42:03.045Z,28.90
2022-08-25T16:43:34.955Z,28.80
2022-08-25T16:45:08.885Z,28.80
2022-08-25T16:46:42.804Z,28.90
2022-08-25T16:48:16.234Z,28.90
2022-08-25T16:49:48.346Z,28.90
2022-08-25T16:51:22.615Z,28.90
2022-08-25T16:53:17.014Z,28.80
2022-08-25T16:55:08.478Z,28.90
2022-08-25T16:56:42.115Z,28.90
2022-08-25T16:58:14.738Z,28.90
2022-08-25T16:59:46.475Z,28.90
2022-08-25T17:01:18.269Z,28.90
2022-08-25T17:02:54.951Z,28.80
2022-08-25T17:04:29.454Z,28.90
2022-08-25T17:06:04.334Z,28.80
2022-08-25T17:07:37.112Z,28.80
2022-08-25T17:09:12.666Z,28.80
2022-08-25T17:10:44.528Z,28.80
2022-08-25T17:12:16.260Z,28.70
2022-08-25T17:13:52.050Z,28.70
2022-08-25T17:15:24.414Z,28.70
2022-08-25T17:16:56.298Z,28.70
2022-08-25T17:18:28.971Z,28.70
2022-08-25T17:20:01.140Z,28.70
2022-08-25T17:21:38.345Z,28.70
2022-08-25T17:23:12.382Z,28.70
2022-08-25T17:24:53.430Z,28.70
2022-08-25T17:26:33.033Z,28.70
2022-08-25T17:28:07.583Z,28.60
2022-08-25T17:29:43.834Z,28.60
2022-08-25T17:31:16.910Z,28.60
2022-08-25T17:32:48.748Z,28.60
2022-08-25T17:34:23.204Z,28.60
2022-08-25T17:35:56.782Z,28.60
2022-08-25T17:37:28.476Z,28.50
2022-08-25T17:39:03.509Z,28.50
2022-08-25T17:40:35.808Z,28.50
2022-08-25T17:42:07.669Z,28.50
2022-08-25T17:43:41.850Z,28.50
2022-08-25T17:45:13.880Z,28.50
2022-08-25T17:46:47.524Z,28.50
2022-08-25T17:48:20.387Z,28.40
2022-08-25T17:49:54.808Z,28.40
2022-08-25T17:51:26.647Z,28.40
2022-08-25T17:53:01.668Z,28.40
2022-08-25T17:54:33.580Z,28.40
2022-08-25T17:56:08.696Z,28.30
2022-08-25T17:57:40.430Z,28.30
2022-08-25T17:59:12.232Z,28.20
2022-08-25T18:00:46.985Z,28.20
2022-08-25T18:02:18.670Z,28.10
2022-08-25T18:03:50.582Z,28.10
2022-08-25T18:05:22.460Z,28.00
2022-08-25T18:06:54.620Z,28.00
2022-08-25T18:08:34.840Z,27.90
2022-08-25T18:10:09.862Z,27.90
2022-08-25T18:11:42.337Z,27.80
2022-08-25T18:13:14.884Z,27.80
2022-08-25T18:14:46.643Z,27.80
2022-08-25T18:16:20.208Z,27.70
2022-08-25T18:17:53.561Z,27.70
2022-08-25T18:19:26.305Z,27.70
2022-08-25T18:20:58.057Z,27.60
2022-08-25T18:22:32.253Z,27.60
2022-08-25T18:24:06.657Z,27.60
2022-08-25T18:25:41.890Z,27.50
2022-08-25T18:27:16.279Z,27.50
2022-08-25T18:28:48.278Z,27.50
2022-08-25T18:30:21.252Z,27.50
2022-08-25T18:31:55.136Z,27.40
2022-08-25T18:33:30.207Z,27.40
2022-08-25T18:35:02.853Z,27.40
2022-08-25T18:36:38.603Z,27.40
2022-08-25T18:38:29.562Z,27.30
2022-08-25T18:40:20.047Z,27.30
2022-08-25T18:41:51.991Z,27.30
2022-08-25T18:43:24.874Z,27.20
2022-08-25T18:44:56.535Z,27.20
2022-08-25T18:46:28.291Z,27.20
2022-08-25T18:48:00.586Z,27.20
2022-08-25T18:49:34.133Z,27.10
2022-08-25T18:51:05.991Z,27.10
2022-08-25T18:52:37.915Z,27.10
2022-08-25T18:54:23.336Z,27.00
2022-08-25T18:55:55.532Z,27.00
2022-08-25T18:57:27.615Z,27.00
2022-08-25T18:59:00.715Z,26.90
2022-08-25T19:00:34.115Z,26.90
2022-08-25T19:02:07.300Z,26.90
2022-08-25T19:03:39.092Z,26.90
2022-08-25T19:05:10.991Z,26.80
2022-08-25T19:06:43.752Z,26.80
2022-08-25T19:08:18.432Z,26.80
2022-08-25T19:09:53.472Z,26.70
2022-08-25T19:11:25.571Z,26.70
2022-08-25T19:12:58.387Z,26.70
2022-08-25T19:14:40.011Z,26.60
2022-08-25T19:16:20.358Z,26.60
2022-08-25T19:17:53.295Z,26.60
2022-08-25T19:19:25.429Z,26.60
2022-08-25T19:20:58.470Z,26.50
2022-08-25T19:22:41.212Z,26.50
2022-08-25T19:24:14.393Z,26.50
2022-08-25T19:25:46.867Z,26.40
2022-08-25T19:27:19.041Z,26.40
2022-08-25T19:28:54.241Z,26.40
2022-08-25T19:30:28.392Z,26.40
2022-08-25T19:32:01.777Z,26.30
2022-08-25T19:33:45.147Z,26.30
2022-08-25T19:35:42.781Z,26.20
2022-08-25T19:37:16.757Z,26.20
2022-08-25T19:38:49.938Z,26.20
2022-08-25T19:40:25.568Z,26.20
2022-08-25T19:41:59.373Z,26.20
2022-08-25T19:43:31.333Z,26.10
2022-08-25T19:45:07.223Z,26.10
2022-08-25T19:46:41.867Z,26.10
2022-08-25T19:48:15.155Z,26.10
2022-08-25T19:49:47.682Z,26.00
2022-08-25T19:51:21.926Z,26.00
2022-08-25T19:52:53.982Z,26.00
2022-08-25T19:54:33.514Z,25.90
2022-08-25T19:56:06.471Z,25.90
2022-08-25T19:57:42.301Z,25.90
2022-08-25T19:59:16.459Z,25.90
2022-08-25T20:00:51.261Z,25.80
2022-08-25T20:02:26.068Z,25.80
2022-08-25T20:04:02.734Z,25.80
2022-08-25T20:05:37.182Z,25.80
2022-08-25T20:07:09.195Z,25.70
2022-08-25T20:08:44.413Z,25.70
2022-08-25T20:10:16.701Z,25.70
2022-08-25T20:11:50.167Z,25.70
2022-08-25T20:13:21.858Z,25.70
2022-08-25T20:14:56.135Z,25.70
2022-08-25T20:16:28.101Z,25.70
2022-08-25T20:18:00.271Z,25.70
2022-08-25T20:19:34.542Z,25.60
2022-08-25T20:21:06.442Z,25.60
2022-08-25T20:22:38.530Z,25.60
2022-08-25T20:24:28.689Z,25.60
2022-08-25T20:26:01.202Z,25.50
2022-08-25T20:27:40.243Z,25.50
2022-08-25T20:29:12.767Z,25.50
2022-08-25T20:30:45.014Z,25.50
2022-08-25T20:32:19.223Z,25.40
2022-08-25T20:33:51.919Z,25.40
2022-08-25T20:35:26.768Z,25.40
2022-08-25T20:36:59.984Z,25.40
2022-08-25T20:38:32.979Z,25.40
2022-08-25T20:40:05.690Z,25.30
2022-08-25T20:41:37.615Z,25.30
2022-08-25T20:43:11.986Z,25.30
2022-08-25T20:44:44.119Z,25.30
2022-08-25T20:46:16.331Z,25.20
2022-08-25T20:47:49.271Z,25.20
2022-08-25T20:49:21.000Z,25.20
2022-08-25T20:50:57.397Z,25.20
2022-08-25T20:52:29.616Z,25.20